sensor_id;sensor_type;location;lat;lon;timestamp;temperature;humidity
15483;DHT22;7843;50.330;7.312;2022-11-20T00:01:14;2.30;99.90
15483;DHT22;7843;50.330;7.312;2022-11-20T00:03:41;2.30;99.90
15483;DHT22;7843;50.330;7.312;2022-11-20T00:06:10;2.30;99.90
15483;DHT22;7843;50.330;7.312;2022-11-20T00:08:37;2.30;99.90
15483;DHT22;7843;50.330;7.312;2022-11-20T00:11:06;2.20;99.90
15483;DHT22;7843;50.330;7.312;2022-11-20T00:13:34;2.20;99.90
15483;DHT22;7843;50.330;7.312;2022-11-20T00:16:03;2.20;99.90
15483;DHT22;7843;50.330;7.312;2022-11-20T00:18:30;2.20;99.90
15483;DHT22;7843;50.330;7.312;2022-11-20T00:21:19;2.20;99.90
15483;DHT22;7843;50.330;7.312;2022-11-20T00:23:49;2.20;99.90
15483;DHT22;7843;50.330;7.312;2022-11-20T00:26:18;2.20;99.90
15483;DHT22;7843;50.330;7.312;2022-11-20T00:28:59;2.20;99.90
15483;DHT22;7843;50.330;7.312;2022-11-20T00:31:26;2.20;99.90
15483;DHT22;7843;50.330;7.312;2022-11-20T00:33:56;2.20;99.90
15483;DHT22;7843;50.330;7.312;2022-11-20T00:36:25;2.20;99.90
15483;DHT22;7843;50.330;7.312;2022-11-20T00:38:53;2.20;99.90
15483;DHT22;7843;50.330;7.312;2022-11-20T00:41:24;2.20;99.90
15483;DHT22;7843;50.330;7.312;2022-11-20T00:43:52;2.10;99.90
15483;DHT22;7843;50.330;7.312;2022-11-20T00:46:24;2.20;99.90
15483;DHT22;7843;50.330;7.312;2022-11-20T00:48:51;2.20;99.90
15483;DHT22;7843;50.330;7.312;2022-11-20T00:51:21;2.20;99.90
15483;DHT22;7843;50.330;7.312;2022-11-20T00:53:48;2.20;99.90
15483;DHT22;7843;50.330;7.312;2022-11-20T00:56:20;2.20;99.90
15483;DHT22;7843;50.330;7.312;2022-11-20T00:58:48;2.20;99.90
15483;DHT22;7843;50.330;7.312;2022-11-20T01:01:18;2.10;99.90
15483;DHT22;7843;50.330;7.312;2022-11-20T01:03:48;2.20;99.90
15483;DHT22;7843;50.330;7.312;2022-11-20T01:06:18;2.20;99.90
15483;DHT22;7843;50.330;7.312;2022-11-20T01:08:46;2.20;99.90
15483;DHT22;7843;50.330;7.312;2022-11-20T01:11:14;2.20;99.90
15483;DHT22;7843;50.330;7.312;2022-11-20T01:13:43;2.20;99.90
15483;DHT22;7843;50.330;7.312;2022-11-20T01:16:15;2.20;99.90
15483;DHT22;7843;50.330;7.312;2022-11-20T01:18:44;2.20;99.90
15483;DHT22;7843;50.330;7.312;2022-11-20T01:21:16;2.20;99.90
15483;DHT22;7843;50.330;7.312;2022-11-20T01:23:44;2.20;99.90
15483;DHT22;7843;50.330;7.312;2022-11-20T01:26:17;2.20;99.90
15483;DHT22;7843;50.330;7.312;2022-11-20T01:28:47;2.20;99.90
15483;DHT22;7843;50.330;7.312;2022-11-20T01:31:26;2.30;99.90
15483;DHT22;7843;50.330;7.312;2022-11-20T01:33:55;2.30;99.90
15483;DHT22;7843;50.330;7.312;2022-11-20T01:36:24;2.30;99.90
15483;DHT22;7843;50.330;7.312;2022-11-20T01:38:55;2.30;99.90
15483;DHT22;7843;50.330;7.312;2022-11-20T01:41:26;2.30;99.90
15483;DHT22;7843;50.330;7.312;2022-11-20T01:44:13;2.20;99.90
15483;DHT22;7843;50.330;7.312;2022-11-20T01:47:02;2.20;99.90
15483;DHT22;7843;50.330;7.312;2022-11-20T01:49:40;2.10;99.90
15483;DHT22;7843;50.330;7.312;2022-11-20T01:52:35;2.10;99.90
15483;DHT22;7843;50.330;7.312;2022-11-20T01:55:12;2.10;99.90
15483;DHT22;7843;50.330;7.312;2022-11-20T01:57:41;2.10;99.90
15483;DHT22;7843;50.330;7.312;2022-11-20T02:00:13;2.20;99.90
15483;DHT22;7843;50.330;7.312;2022-11-20T02:02:43;2.20;99.90
15483;DHT22;7843;50.330;7.312;2022-11-20T02:05:36;2.20;99.90
15483;DHT22;7843;50.330;7.312;2022-11-20T02:08:06;2.20;99.90
15483;DHT22;7843;50.330;7.312;2022-11-20T02:10:33;2.20;99.90
15483;DHT22;7843;50.330;7.312;2022-11-20T02:13:00;2.20;99.90
15483;DHT22;7843;50.330;7.312;2022-11-20T02:15:47;2.20;99.90
15483;DHT22;7843;50.330;7.312;2022-11-20T02:18:16;2.20;99.90
15483;DHT22;7843;50.330;7.312;2022-11-20T02:20:46;2.20;99.90
15483;DHT22;7843;50.330;7.312;2022-11-20T02:23:36;2.20;99.90
15483;DHT22;7843;50.330;7.312;2022-11-20T02:26:08;2.20;99.90
15483;DHT22;7843;50.330;7.312;2022-11-20T02:28:35;2.20;99.90
15483;DHT22;7843;50.330;7.312;2022-11-20T02:31:02;2.20;99.90
15483;DHT22;7843;50.330;7.312;2022-11-20T02:33:29;2.20;99.90
15483;DHT22;7843;50.330;7.312;2022-11-20T02:35:55;2.20;99.90
15483;DHT22;7843;50.330;7.312;2022-11-20T02:38:22;2.30;99.90
15483;DHT22;7843;50.330;7.312;2022-11-20T02:40:49;2.30;99.90
15483;DHT22;7843;50.330;7.312;2022-11-20T02:43:23;2.30;99.90
15483;DHT22;7843;50.330;7.312;2022-11-20T02:45:50;2.30;99.90
15483;DHT22;7843;50.330;7.312;2022-11-20T02:48:17;2.30;99.90
15483;DHT22;7843;50.330;7.312;2022-11-20T02:50:43;2.20;99.90
15483;DHT22;7843;50.330;7.312;2022-11-20T02:53:10;2.20;99.90
15483;DHT22;7843;50.330;7.312;2022-11-20T02:55:40;2.20;99.90
15483;DHT22;7843;50.330;7.312;2022-11-20T02:58:07;2.30;99.90
15483;DHT22;7843;50.330;7.312;2022-11-20T03:00:33;2.30;99.90
15483;DHT22;7843;50.330;7.312;2022-11-20T03:03:03;2.30;99.90
15483;DHT22;7843;50.330;7.312;2022-11-20T03:05:29;2.30;99.90
15483;DHT22;7843;50.330;7.312;2022-11-20T03:07:56;2.40;99.90
15483;DHT22;7843;50.330;7.312;2022-11-20T03:10:25;2.40;99.90
15483;DHT22;7843;50.330;7.312;2022-11-20T03:12:54;2.40;99.90
15483;DHT22;7843;50.330;7.312;2022-11-20T03:15:23;2.40;99.90
15483;DHT22;7843;50.330;7.312;2022-11-20T03:17:53;2.40;99.90
15483;DHT22;7843;50.330;7.312;2022-11-20T03:20:21;2.40;99.90
15483;DHT22;7843;50.330;7.312;2022-11-20T03:22:48;2.40;99.90
15483;DHT22;7843;50.330;7.312;2022-11-20T03:25:16;2.40;99.90
15483;DHT22;7843;50.330;7.312;2022-11-20T03:27:43;2.40;99.90
15483;DHT22;7843;50.330;7.312;2022-11-20T03:30:10;2.40;99.90
15483;DHT22;7843;50.330;7.312;2022-11-20T03:32:37;2.30;99.90
15483;DHT22;7843;50.330;7.312;2022-11-20T03:35:03;2.30;99.90
15483;DHT22;7843;50.330;7.312;2022-11-20T03:37:31;2.30;99.90
15483;DHT22;7843;50.330;7.312;2022-11-20T03:40:01;2.30;99.90
15483;DHT22;7843;50.330;7.312;2022-11-20T03:42:27;2.30;99.90
15483;DHT22;7843;50.330;7.312;2022-11-20T03:45:14;2.40;99.90
15483;DHT22;7843;50.330;7.312;2022-11-20T03:47:41;2.40;99.90
15483;DHT22;7843;50.330;7.312;2022-11-20T03:50:10;2.40;99.90
15483;DHT22;7843;50.330;7.312;2022-11-20T03:52:38;2.40;99.90
15483;DHT22;7843;50.330;7.312;2022-11-20T03:55:06;2.40;99.90
15483;DHT22;7843;50.330;7.312;2022-11-20T03:57:33;2.40;99.90
15483;DHT22;7843;50.330;7.312;2022-11-20T04:00:00;2.40;99.90
15483;DHT22;7843;50.330;7.312;2022-11-20T04:02:29;2.40;99.90
15483;DHT22;7843;50.330;7.312;2022-11-20T04:04:55;2.40;99.90
15483;DHT22;7843;50.330;7.312;2022-11-20T04:07:22;2.40;99.90
15483;DHT22;7843;50.330;7.312;2022-11-20T04:09:51;2.40;99.90
15483;DHT22;7843;50.330;7.312;2022-11-20T04:12:17;2.50;99.90
15483;DHT22;7843;50.330;7.312;2022-11-20T04:14:44;2.40;99.90
15483;DHT22;7843;50.330;7.312;2022-11-20T04:17:11;2.40;99.90
15483;DHT22;7843;50.330;7.312;2022-11-20T04:19:40;2.40;99.90
15483;DHT22;7843;50.330;7.312;2022-11-20T04:22:07;2.40;99.90
15483;DHT22;7843;50.330;7.312;2022-11-20T04:24:34;2.40;99.90
15483;DHT22;7843;50.330;7.312;2022-11-20T04:27:01;2.40;99.90
15483;DHT22;7843;50.330;7.312;2022-11-20T04:29:28;2.40;99.90
15483;DHT22;7843;50.330;7.312;2022-11-20T04:31:54;2.50;99.90
15483;DHT22;7843;50.330;7.312;2022-11-20T04:34:21;2.50;99.90
15483;DHT22;7843;50.330;7.312;2022-11-20T04:36:50;2.40;99.90
15483;DHT22;7843;50.330;7.312;2022-11-20T04:39:17;2.50;99.90
15483;DHT22;7843;50.330;7.312;2022-11-20T04:41:44;2.50;99.90
15483;DHT22;7843;50.330;7.312;2022-11-20T04:44:10;2.60;99.90
15483;DHT22;7843;50.330;7.312;2022-11-20T04:46:39;2.50;99.90
15483;DHT22;7843;50.330;7.312;2022-11-20T04:49:09;2.50;99.90
15483;DHT22;7843;50.330;7.312;2022-11-20T04:51:36;2.50;99.90
15483;DHT22;7843;50.330;7.312;2022-11-20T04:54:03;2.50;99.90
15483;DHT22;7843;50.330;7.312;2022-11-20T04:56:33;2.50;99.90
15483;DHT22;7843;50.330;7.312;2022-11-20T04:59:01;2.50;99.90
15483;DHT22;7843;50.330;7.312;2022-11-20T05:01:28;2.50;99.90
15483;DHT22;7843;50.330;7.312;2022-11-20T05:03:54;2.50;99.90
15483;DHT22;7843;50.330;7.312;2022-11-20T05:06:26;2.50;99.90
15483;DHT22;7843;50.330;7.312;2022-11-20T05:08:52;2.40;99.90
15483;DHT22;7843;50.330;7.312;2022-11-20T05:11:22;2.40;99.90
15483;DHT22;7843;50.330;7.312;2022-11-20T05:13:51;2.40;99.90
15483;DHT22;7843;50.330;7.312;2022-11-20T05:16:20;2.40;99.90
15483;DHT22;7843;50.330;7.312;2022-11-20T05:18:52;2.50;99.90
15483;DHT22;7843;50.330;7.312;2022-11-20T05:21:19;2.50;99.90
15483;DHT22;7843;50.330;7.312;2022-11-20T05:23:46;2.40;99.90
15483;DHT22;7843;50.330;7.312;2022-11-20T05:26:19;2.40;99.90
15483;DHT22;7843;50.330;7.312;2022-11-20T05:28:48;2.40;99.90
15483;DHT22;7843;50.330;7.312;2022-11-20T05:31:18;2.40;99.90
15483;DHT22;7843;50.330;7.312;2022-11-20T05:33:49;2.40;99.90
15483;DHT22;7843;50.330;7.312;2022-11-20T05:36:16;2.40;99.90
15483;DHT22;7843;50.330;7.312;2022-11-20T05:38:43;2.40;99.90
15483;DHT22;7843;50.330;7.312;2022-11-20T05:41:13;2.40;99.90
15483;DHT22;7843;50.330;7.312;2022-11-20T05:43:41;2.40;99.90
15483;DHT22;7843;50.330;7.312;2022-11-20T05:46:11;2.40;99.90
15483;DHT22;7843;50.330;7.312;2022-11-20T05:48:39;2.40;99.90
15483;DHT22;7843;50.330;7.312;2022-11-20T05:51:08;2.40;99.90
15483;DHT22;7843;50.330;7.312;2022-11-20T05:53:36;2.40;99.90
15483;DHT22;7843;50.330;7.312;2022-11-20T05:56:05;2.40;99.90
15483;DHT22;7843;50.330;7.312;2022-11-20T05:58:39;2.40;99.90
15483;DHT22;7843;50.330;7.312;2022-11-20T06:01:13;2.40;99.90
15483;DHT22;7843;50.330;7.312;2022-11-20T06:03:41;2.50;99.90
15483;DHT22;7843;50.330;7.312;2022-11-20T06:06:10;2.50;99.90
15483;DHT22;7843;50.330;7.312;2022-11-20T06:08:36;2.50;99.90
15483;DHT22;7843;50.330;7.312;2022-11-20T06:11:08;2.50;99.90
15483;DHT22;7843;50.330;7.312;2022-11-20T06:13:35;2.50;99.90
15483;DHT22;7843;50.330;7.312;2022-11-20T06:16:05;2.50;99.90
15483;DHT22;7843;50.330;7.312;2022-11-20T06:18:31;2.50;99.90
15483;DHT22;7843;50.330;7.312;2022-11-20T06:21:16;2.60;99.90
15483;DHT22;7843;50.330;7.312;2022-11-20T06:23:43;2.60;99.90
15483;DHT22;7843;50.330;7.312;2022-11-20T06:26:22;2.70;99.90
15483;DHT22;7843;50.330;7.312;2022-11-20T06:28:49;2.60;99.90
15483;DHT22;7843;50.330;7.312;2022-11-20T06:31:21;2.60;99.90
15483;DHT22;7843;50.330;7.312;2022-11-20T06:33:48;2.60;99.90
15483;DHT22;7843;50.330;7.312;2022-11-20T06:36:17;2.60;99.90
15483;DHT22;7843;50.330;7.312;2022-11-20T06:38:45;2.60;99.90
15483;DHT22;7843;50.330;7.312;2022-11-20T06:41:21;2.60;99.90
15483;DHT22;7843;50.330;7.312;2022-11-20T06:43:49;2.60;99.90
15483;DHT22;7843;50.330;7.312;2022-11-20T06:46:17;2.60;99.90
15483;DHT22;7843;50.330;7.312;2022-11-20T06:48:45;2.60;99.90
15483;DHT22;7843;50.330;7.312;2022-11-20T06:51:14;2.60;99.90
15483;DHT22;7843;50.330;7.312;2022-11-20T06:53:41;2.60;99.90
15483;DHT22;7843;50.330;7.312;2022-11-20T06:56:08;2.60;99.90
15483;DHT22;7843;50.330;7.312;2022-11-20T06:58:35;2.60;99.90
15483;DHT22;7843;50.330;7.312;2022-11-20T07:01:10;2.60;99.90
15483;DHT22;7843;50.330;7.312;2022-11-20T07:03:37;2.60;99.90
15483;DHT22;7843;50.330;7.312;2022-11-20T07:06:05;2.60;99.90
15483;DHT22;7843;50.330;7.312;2022-11-20T07:08:32;2.60;99.90
15483;DHT22;7843;50.330;7.312;2022-11-20T07:11:01;2.60;99.90
15483;DHT22;7843;50.330;7.312;2022-11-20T07:13:29;2.60;99.90
15483;DHT22;7843;50.330;7.312;2022-11-20T07:16:03;2.60;99.90
15483;DHT22;7843;50.330;7.312;2022-11-20T07:18:30;2.60;99.90
15483;DHT22;7843;50.330;7.312;2022-11-20T07:21:03;2.70;99.90
15483;DHT22;7843;50.330;7.312;2022-11-20T07:23:30;2.70;99.90
15483;DHT22;7843;50.330;7.312;2022-11-20T07:25:57;2.70;99.90
15483;DHT22;7843;50.330;7.312;2022-11-20T07:28:24;2.70;99.90
15483;DHT22;7843;50.330;7.312;2022-11-20T07:30:52;2.70;99.90
15483;DHT22;7843;50.330;7.312;2022-11-20T07:33:19;2.80;99.90
15483;DHT22;7843;50.330;7.312;2022-11-20T07:35:46;2.80;99.90
15483;DHT22;7843;50.330;7.312;2022-11-20T07:38:13;2.80;99.90
15483;DHT22;7843;50.330;7.312;2022-11-20T07:40:39;2.80;99.90
15483;DHT22;7843;50.330;7.312;2022-11-20T07:43:06;2.70;99.90
15483;DHT22;7843;50.330;7.312;2022-11-20T07:45:33;2.70;99.90
15483;DHT22;7843;50.330;7.312;2022-11-20T07:48:00;2.60;99.90
15483;DHT22;7843;50.330;7.312;2022-11-20T07:50:27;2.50;99.90
15483;DHT22;7843;50.330;7.312;2022-11-20T07:53:03;2.40;99.90
15483;DHT22;7843;50.330;7.312;2022-11-20T07:55:31;2.40;99.90
15483;DHT22;7843;50.330;7.312;2022-11-20T07:57:58;2.40;99.90
15483;DHT22;7843;50.330;7.312;2022-11-20T08:00:26;2.40;99.90
15483;DHT22;7843;50.330;7.312;2022-11-20T08:02:53;2.40;99.90
15483;DHT22;7843;50.330;7.312;2022-11-20T08:05:19;2.50;99.90
15483;DHT22;7843;50.330;7.312;2022-11-20T08:07:46;2.50;99.90
15483;DHT22;7843;50.330;7.312;2022-11-20T08:10:14;2.60;99.90
15483;DHT22;7843;50.330;7.312;2022-11-20T08:12:52;2.60;99.90
15483;DHT22;7843;50.330;7.312;2022-11-20T08:15:39;2.70;99.90
15483;DHT22;7843;50.330;7.312;2022-11-20T08:18:08;2.90;99.90
15483;DHT22;7843;50.330;7.312;2022-11-20T08:20:55;3.00;99.90
15483;DHT22;7843;50.330;7.312;2022-11-20T08:23:22;3.00;99.90
15483;DHT22;7843;50.330;7.312;2022-11-20T08:25:50;3.00;99.90
15483;DHT22;7843;50.330;7.312;2022-11-20T08:28:17;2.90;99.90
15483;DHT22;7843;50.330;7.312;2022-11-20T08:30:46;2.90;99.90
15483;DHT22;7843;50.330;7.312;2022-11-20T08:33:13;3.00;99.90
15483;DHT22;7843;50.330;7.312;2022-11-20T08:35:40;3.00;99.90
15483;DHT22;7843;50.330;7.312;2022-11-20T08:38:08;3.00;99.90
15483;DHT22;7843;50.330;7.312;2022-11-20T08:40:35;3.00;99.90
15483;DHT22;7843;50.330;7.312;2022-11-20T08:43:02;3.10;99.90
15483;DHT22;7843;50.330;7.312;2022-11-20T08:45:29;3.10;99.90
15483;DHT22;7843;50.330;7.312;2022-11-20T08:48:02;3.20;99.90
15483;DHT22;7843;50.330;7.312;2022-11-20T08:50:30;3.20;99.90
15483;DHT22;7843;50.330;7.312;2022-11-20T08:53:05;3.20;99.90
15483;DHT22;7843;50.330;7.312;2022-11-20T08:55:32;3.30;99.90
15483;DHT22;7843;50.330;7.312;2022-11-20T08:58:03;3.30;99.90
15483;DHT22;7843;50.330;7.312;2022-11-20T09:00:30;3.30;99.90
15483;DHT22;7843;50.330;7.312;2022-11-20T09:02:58;3.40;99.90
15483;DHT22;7843;50.330;7.312;2022-11-20T09:05:27;3.40;99.90
15483;DHT22;7843;50.330;7.312;2022-11-20T09:08:00;3.40;99.90
15483;DHT22;7843;50.330;7.312;2022-11-20T09:10:27;3.40;99.90
15483;DHT22;7843;50.330;7.312;2022-11-20T09:12:54;3.50;99.90
15483;DHT22;7843;50.330;7.312;2022-11-20T09:15:24;3.50;99.90
15483;DHT22;7843;50.330;7.312;2022-11-20T09:17:56;3.50;99.90
15483;DHT22;7843;50.330;7.312;2022-11-20T09:20:24;3.40;99.90
15483;DHT22;7843;50.330;7.312;2022-11-20T09:22:50;3.50;99.90
15483;DHT22;7843;50.330;7.312;2022-11-20T09:25:17;3.50;99.90
15483;DHT22;7843;50.330;7.312;2022-11-20T09:27:44;3.50;99.90
15483;DHT22;7843;50.330;7.312;2022-11-20T09:30:15;3.50;99.90
15483;DHT22;7843;50.330;7.312;2022-11-20T09:32:42;3.50;99.90
15483;DHT22;7843;50.330;7.312;2022-11-20T09:35:09;3.50;99.90
15483;DHT22;7843;50.330;7.312;2022-11-20T09:37:36;3.60;99.90
15483;DHT22;7843;50.330;7.312;2022-11-20T09:40:03;3.70;99.90
15483;DHT22;7843;50.330;7.312;2022-11-20T09:42:41;3.70;99.90
15483;DHT22;7843;50.330;7.312;2022-11-20T09:48:05;3.80;99.90
15483;DHT22;7843;50.330;7.312;2022-11-20T09:55:42;4.00;99.90
15483;DHT22;7843;50.330;7.312;2022-11-20T09:58:25;4.10;99.90
15483;DHT22;7843;50.330;7.312;2022-11-20T10:01:00;4.20;99.90
15483;DHT22;7843;50.330;7.312;2022-11-20T10:06:33;4.30;99.90
15483;DHT22;7843;50.330;7.312;2022-11-20T10:26:00;5.20;99.90
15483;DHT22;7843;50.330;7.312;2022-11-20T10:31:31;5.40;99.90
15483;DHT22;7843;50.330;7.312;2022-11-20T10:34:03;5.60;99.90
15483;DHT22;7843;50.330;7.312;2022-11-20T10:36:46;5.70;99.90
15483;DHT22;7843;50.330;7.312;2022-11-20T10:42:20;5.60;99.90
15483;DHT22;7843;50.330;7.312;2022-11-20T10:45:02;5.50;99.90
15483;DHT22;7843;50.330;7.312;2022-11-20T10:47:31;5.70;99.90
15483;DHT22;7843;50.330;7.312;2022-11-20T10:50:02;5.90;99.90
15483;DHT22;7843;50.330;7.312;2022-11-20T10:53:07;6.00;99.90
15483;DHT22;7843;50.330;7.312;2022-11-20T10:55:46;6.00;99.90
15483;DHT22;7843;50.330;7.312;2022-11-20T10:58:37;5.90;99.90
15483;DHT22;7843;50.330;7.312;2022-11-20T11:01:21;6.00;99.90
15483;DHT22;7843;50.330;7.312;2022-11-20T11:03:52;6.00;99.90
15483;DHT22;7843;50.330;7.312;2022-11-20T11:06:40;6.10;99.90
15483;DHT22;7843;50.330;7.312;2022-11-20T11:09:17;6.10;99.90
15483;DHT22;7843;50.330;7.312;2022-11-20T11:11:46;6.20;99.90
15483;DHT22;7843;50.330;7.312;2022-11-20T11:14:14;6.20;99.90
15483;DHT22;7843;50.330;7.312;2022-11-20T11:16:55;6.20;99.90
15483;DHT22;7843;50.330;7.312;2022-11-20T11:19:23;6.20;99.90
15483;DHT22;7843;50.330;7.312;2022-11-20T11:21:55;6.10;99.90
15483;DHT22;7843;50.330;7.312;2022-11-20T11:24:28;6.10;99.90
15483;DHT22;7843;50.330;7.312;2022-11-20T11:27:14;6.10;99.90
15483;DHT22;7843;50.330;7.312;2022-11-20T11:29:44;6.00;99.90
15483;DHT22;7843;50.330;7.312;2022-11-20T11:32:19;5.90;99.90
15483;DHT22;7843;50.330;7.312;2022-11-20T11:35:04;5.90;99.90
15483;DHT22;7843;50.330;7.312;2022-11-20T11:37:36;5.90;99.90
15483;DHT22;7843;50.330;7.312;2022-11-20T11:40:05;5.90;99.90
15483;DHT22;7843;50.330;7.312;2022-11-20T11:42:54;5.90;99.90
15483;DHT22;7843;50.330;7.312;2022-11-20T11:45:23;5.90;99.90
15483;DHT22;7843;50.330;7.312;2022-11-20T11:47:51;5.80;99.90
15483;DHT22;7843;50.330;7.312;2022-11-20T11:50:22;5.80;99.90
15483;DHT22;7843;50.330;7.312;2022-11-20T11:55:35;5.80;99.90
15483;DHT22;7843;50.330;7.312;2022-11-20T12:01:24;5.80;99.90
15483;DHT22;7843;50.330;7.312;2022-11-20T12:04:20;5.70;99.90
15483;DHT22;7843;50.330;7.312;2022-11-20T12:06:58;5.70;99.90
15483;DHT22;7843;50.330;7.312;2022-11-20T12:09:37;5.70;99.90
15483;DHT22;7843;50.330;7.312;2022-11-20T12:12:10;5.70;99.90
15483;DHT22;7843;50.330;7.312;2022-11-20T12:14:41;5.60;99.90
15483;DHT22;7843;50.330;7.312;2022-11-20T12:17:13;5.60;99.90
15483;DHT22;7843;50.330;7.312;2022-11-20T12:19:41;5.70;99.90
15483;DHT22;7843;50.330;7.312;2022-11-20T12:25:19;5.90;99.90
15483;DHT22;7843;50.330;7.312;2022-11-20T12:30:17;6.00;99.90
15483;DHT22;7843;50.330;7.312;2022-11-20T12:55:55;6.60;99.90
15483;DHT22;7843;50.330;7.312;2022-11-20T13:06:51;6.30;99.90
15483;DHT22;7843;50.330;7.312;2022-11-20T13:09:20;6.30;99.90
15483;DHT22;7843;50.330;7.312;2022-11-20T13:12:09;6.20;99.90
15483;DHT22;7843;50.330;7.312;2022-11-20T13:14:55;6.30;99.90
15483;DHT22;7843;50.330;7.312;2022-11-20T13:17:35;6.30;99.90
15483;DHT22;7843;50.330;7.312;2022-11-20T13:20:06;6.30;99.90
15483;DHT22;7843;50.330;7.312;2022-11-20T13:22:52;6.20;99.90
15483;DHT22;7843;50.330;7.312;2022-11-20T13:25:32;6.20;99.90
15483;DHT22;7843;50.330;7.312;2022-11-20T13:28:01;6.20;99.90
15483;DHT22;7843;50.330;7.312;2022-11-20T13:30:30;6.20;99.90
15483;DHT22;7843;50.330;7.312;2022-11-20T13:33:22;6.20;99.90
15483;DHT22;7843;50.330;7.312;2022-11-20T13:36:04;6.10;99.90
15483;DHT22;7843;50.330;7.312;2022-11-20T13:38:48;6.10;99.90
15483;DHT22;7843;50.330;7.312;2022-11-20T13:41:31;6.00;99.90
15483;DHT22;7843;50.330;7.312;2022-11-20T13:46:38;6.10;99.90
15483;DHT22;7843;50.330;7.312;2022-11-20T13:57:55;6.10;99.90
15483;DHT22;7843;50.330;7.312;2022-11-20T14:00:25;6.00;99.90
15483;DHT22;7843;50.330;7.312;2022-11-20T14:03:19;6.00;99.90
15483;DHT22;7843;50.330;7.312;2022-11-20T14:06:01;6.00;99.90
15483;DHT22;7843;50.330;7.312;2022-11-20T14:08:42;6.00;99.90
15483;DHT22;7843;50.330;7.312;2022-11-20T14:11:29;6.00;99.90
15483;DHT22;7843;50.330;7.312;2022-11-20T14:14:00;6.00;99.90
15483;DHT22;7843;50.330;7.312;2022-11-20T14:16:29;6.00;99.90
15483;DHT22;7843;50.330;7.312;2022-11-20T14:18:58;6.10;99.90
15483;DHT22;7843;50.330;7.312;2022-11-20T14:21:44;6.00;99.90
15483;DHT22;7843;50.330;7.312;2022-11-20T14:24:12;6.00;99.90
15483;DHT22;7843;50.330;7.312;2022-11-20T14:26:43;6.00;99.90
15483;DHT22;7843;50.330;7.312;2022-11-20T14:29:13;6.00;99.90
15483;DHT22;7843;50.330;7.312;2022-11-20T14:31:42;5.90;99.90
15483;DHT22;7843;50.330;7.312;2022-11-20T14:34:20;5.90;99.90
15483;DHT22;7843;50.330;7.312;2022-11-20T14:36:48;5.90;99.90
15483;DHT22;7843;50.330;7.312;2022-11-20T14:39:25;5.80;99.90
15483;DHT22;7843;50.330;7.312;2022-11-20T14:41:53;5.80;99.90
15483;DHT22;7843;50.330;7.312;2022-11-20T14:44:25;5.80;99.90
15483;DHT22;7843;50.330;7.312;2022-11-20T14:46:53;5.80;99.90
15483;DHT22;7843;50.330;7.312;2022-11-20T14:49:22;5.70;99.90
15483;DHT22;7843;50.330;7.312;2022-11-20T14:51:59;5.70;99.90
15483;DHT22;7843;50.330;7.312;2022-11-20T14:54:26;5.70;99.90
15483;DHT22;7843;50.330;7.312;2022-11-20T14:56:58;5.70;99.90
15483;DHT22;7843;50.330;7.312;2022-11-20T14:59:30;5.70;99.90
15483;DHT22;7843;50.330;7.312;2022-11-20T15:02:03;5.70;99.90
15483;DHT22;7843;50.330;7.312;2022-11-20T15:04:30;5.70;99.90
15483;DHT22;7843;50.330;7.312;2022-11-20T15:07:00;5.70;99.90
15483;DHT22;7843;50.330;7.312;2022-11-20T15:09:27;5.80;99.90
15483;DHT22;7843;50.330;7.312;2022-11-20T15:11:58;5.80;99.90
15483;DHT22;7843;50.330;7.312;2022-11-20T15:14:27;5.80;99.90
15483;DHT22;7843;50.330;7.312;2022-11-20T15:16:55;5.90;99.90
15483;DHT22;7843;50.330;7.312;2022-11-20T15:19:23;5.90;99.90
15483;DHT22;7843;50.330;7.312;2022-11-20T15:21:50;5.90;99.90
15483;DHT22;7843;50.330;7.312;2022-11-20T15:24:17;5.90;99.90
15483;DHT22;7843;50.330;7.312;2022-11-20T15:26:44;6.00;99.90
15483;DHT22;7843;50.330;7.312;2022-11-20T15:29:14;6.00;99.90
15483;DHT22;7843;50.330;7.312;2022-11-20T15:31:41;6.00;99.90
15483;DHT22;7843;50.330;7.312;2022-11-20T15:34:11;5.90;99.90
15483;DHT22;7843;50.330;7.312;2022-11-20T15:36:39;5.90;99.90
15483;DHT22;7843;50.330;7.312;2022-11-20T15:39:07;5.90;99.90
15483;DHT22;7843;50.330;7.312;2022-11-20T15:41:34;5.90;99.90
15483;DHT22;7843;50.330;7.312;2022-11-20T15:44:01;5.90;99.90
15483;DHT22;7843;50.330;7.312;2022-11-20T15:46:31;5.90;99.90
15483;DHT22;7843;50.330;7.312;2022-11-20T15:49:04;5.90;99.90
15483;DHT22;7843;50.330;7.312;2022-11-20T15:51:39;5.90;99.90
15483;DHT22;7843;50.330;7.312;2022-11-20T15:54:13;6.00;99.90
15483;DHT22;7843;50.330;7.312;2022-11-20T15:56:40;6.00;99.90
15483;DHT22;7843;50.330;7.312;2022-11-20T15:59:06;6.10;99.90
15483;DHT22;7843;50.330;7.312;2022-11-20T16:01:33;6.10;99.90
15483;DHT22;7843;50.330;7.312;2022-11-20T16:04:00;6.00;99.90
15483;DHT22;7843;50.330;7.312;2022-11-20T16:06:27;6.00;99.90
15483;DHT22;7843;50.330;7.312;2022-11-20T16:08:54;6.00;99.90
15483;DHT22;7843;50.330;7.312;2022-11-20T16:11:20;6.10;99.90
15483;DHT22;7843;50.330;7.312;2022-11-20T16:13:47;6.00;99.90
15483;DHT22;7843;50.330;7.312;2022-11-20T16:16:37;6.00;99.90
15483;DHT22;7843;50.330;7.312;2022-11-20T16:19:06;6.00;99.90
15483;DHT22;7843;50.330;7.312;2022-11-20T16:21:32;6.00;99.90
15483;DHT22;7843;50.330;7.312;2022-11-20T16:24:04;6.10;99.90
15483;DHT22;7843;50.330;7.312;2022-11-20T16:26:32;6.10;99.90
15483;DHT22;7843;50.330;7.312;2022-11-20T16:29:00;6.10;99.90
15483;DHT22;7843;50.330;7.312;2022-11-20T16:31:28;6.10;99.90
15483;DHT22;7843;50.330;7.312;2022-11-20T16:34:00;6.00;99.90
15483;DHT22;7843;50.330;7.312;2022-11-20T16:36:27;6.10;99.90
15483;DHT22;7843;50.330;7.312;2022-11-20T16:38:58;6.10;99.90
15483;DHT22;7843;50.330;7.312;2022-11-20T16:41:27;6.20;99.90
15483;DHT22;7843;50.330;7.312;2022-11-20T16:43:57;6.10;99.90
15483;DHT22;7843;50.330;7.312;2022-11-20T16:46:29;6.10;99.90
15483;DHT22;7843;50.330;7.312;2022-11-20T16:48:58;6.10;99.90
15483;DHT22;7843;50.330;7.312;2022-11-20T16:51:27;6.10;99.90
15483;DHT22;7843;50.330;7.312;2022-11-20T16:53:54;6.10;99.90
15483;DHT22;7843;50.330;7.312;2022-11-20T16:56:25;6.10;99.90
15483;DHT22;7843;50.330;7.312;2022-11-20T16:58:54;6.10;99.90
15483;DHT22;7843;50.330;7.312;2022-11-20T17:01:23;6.10;99.90
15483;DHT22;7843;50.330;7.312;2022-11-20T17:04:04;6.10;99.90
15483;DHT22;7843;50.330;7.312;2022-11-20T17:06:33;6.10;99.90
15483;DHT22;7843;50.330;7.312;2022-11-20T17:09:01;6.10;99.90
15483;DHT22;7843;50.330;7.312;2022-11-20T17:11:28;6.10;99.90
15483;DHT22;7843;50.330;7.312;2022-11-20T17:13:56;6.00;99.90
15483;DHT22;7843;50.330;7.312;2022-11-20T17:16:25;6.00;99.90
15483;DHT22;7843;50.330;7.312;2022-11-20T17:18:56;6.00;99.90
15483;DHT22;7843;50.330;7.312;2022-11-20T17:21:27;6.00;99.90
15483;DHT22;7843;50.330;7.312;2022-11-20T17:23:55;5.90;99.90
15483;DHT22;7843;50.330;7.312;2022-11-20T17:26:22;6.00;99.90
15483;DHT22;7843;50.330;7.312;2022-11-20T17:31:25;6.00;99.90
15483;DHT22;7843;50.330;7.312;2022-11-20T17:33:52;5.90;99.90
15483;DHT22;7843;50.330;7.312;2022-11-20T17:36:19;5.90;99.90
15483;DHT22;7843;50.330;7.312;2022-11-20T17:38:47;5.90;99.90
15483;DHT22;7843;50.330;7.312;2022-11-20T17:41:16;6.00;99.90
15483;DHT22;7843;50.330;7.312;2022-11-20T17:43:43;6.00;99.90
15483;DHT22;7843;50.330;7.312;2022-11-20T17:46:18;6.00;99.90
15483;DHT22;7843;50.330;7.312;2022-11-20T17:48:46;5.90;99.90
15483;DHT22;7843;50.330;7.312;2022-11-20T17:51:19;5.90;99.90
15483;DHT22;7843;50.330;7.312;2022-11-20T17:53:51;5.90;99.90
15483;DHT22;7843;50.330;7.312;2022-11-20T17:56:19;5.90;99.90